Ocean City (26N)
Ocean City, NJ
Field Elevation: 8
Lat: 39°15.81N  Long: 74°36.45W
CTAF/Unicom Freq: 122.7000
   
     For Weather-by-Phone, call (609) 398-0705
Weather Advisories
2018-12-16   20:01 Z
Altimeter 29.68" Hg
Wind 010° @ 11 KT
Gusts 18 KT
Visibility 2 SM
Ceiling VV009
Temperature 8° C (46° F)
Dewpoint 8° C (46° F)
Relative Humidity 100%
Density Altitude --
Condensation Altitude --
Wind Chill: 5° C (41° F)
Wind and Runways
Indicated Runway = 06
Headwind = 7 kt
Crosswind = 8 kt
History
 
 
 
More Info
All DigiWx sites map
Weather Radar
NOAA Forecast
 
Airport IQ 5010
(HMIEM) Shock Trauma Ctr
(PN44) Upper Gwynedd Heliport
 
about DigiWx
 
FAA Disclaimer: The data displayed is for advisory purposes only and is not to be used for flight planning or operations. For official data, please call (609) 398-0705 to hear the current automated AWOS voice message.
  METAR 26N 162001Z AUTO 01011G18KT VIS 2 SM VV009 08/08 A2968